首页
METAR-TAF:

METAR-TAF

机场 :

黑堡, 弗吉尼亚州, 美国

纬度: 37-13N, 经度: 080-25W, 海拔: 650米

当前天气观测

该预报发布于16分钟前的01:55 UTC
静风
温度 21°C
湿度 94%
气压 1017 hPa
能見度: 16.1公里
散云层高于2900英尺
散云层高于4000英尺
阴天层高于9500英尺

METAR: KBCB 220155Z AUTO 00000KT 10SM SCT029 SCT040 OVC095 21/20 A3004 RMK AO2 T02050201

时间: 22:11 (02:11 UTC)

预报

该预报发布于1小时和52分钟前的00:19 UTC
预报有效从22日的 00点(UTC)到 22日的 24点(UTC)
风速3节,风向多变
能見度: 10公里
多云层高于5000英尺
附近有阵雨
短暂存在
从 22日的 00点(UTC)到 22日的 01点(UTC)
能見度: 6.4公里
阴天层高于3500英尺
小阵雨
从 22日的 0600点(UTC)
风速3节,风向多变
能見度: 10公里
散云层高于6000英尺
从 22日的 0900点(UTC)
风速5节,风向西
能見度: 10公里
多云层高于800英尺
从 22日的 1900点(UTC)
风速9节,风向西北,有时为17节阵风
能見度: 10公里
多云层高于4000英尺

TAF: KBCB 220019Z 2200/2224 VRB03KT P6SM VCSH BKN050 TEMPO 2200/2201 4SM -SHRA OVC035 FM220600 VRB03KT P6SM SCT060 FM220900 28005KT P6SM BKN008 FM221900 31009G17KT P6SM BKN040

超过4000个机场的气象观测和天气预报(METAR&TAF报告)。

可查询的气象台以黄色和红色小点在地图上表示。

将鼠标移到小点上方,可查看气象台名称。

然后点击查看天气观测和预报。

如需切换地图:点击带黑十字的绿色按钮放大地图;点击带横线的绿色按钮缩小地图;或者点击绿色箭头查看邻近地区的地图。


METAR-TAF: